KDLS/DLS METAR and TAF weather

Enter ICAO airport designator
Station Type Date Time Source
KDLS METAR 2020/09/22 22:53 UTC NOAA

KDLS 222253Z AUTO 28013KT 10SM CLR 23/09 A2993 RMK AO2 SLP135 T02330094


Station Type Date Time Source
KDLS Decoded METAR 2020/09/22 22:53 UTC NOAA

THE DALLES MUNICIPAL AIRPORT , OR, United States (KDLS) 45-37N 121-10W 71M
Sep 22, 2020 - 06:53 PM EDT / 2020.09.22 2253 UTC
Wind: from the W (280 degrees) at 15 MPH (13 KT):0
Visibility: 10 mile(s):0
Sky conditions: clear
Temperature: 73.9 F (23.3 C)
Dew Point: 48.9 F (9.4 C)
Relative Humidity: 41%
Pressure (altimeter): 29.93 in. Hg (1013 hPa)
ob: KDLS 222253Z AUTO 28013KT 10SM CLR 23/09 A2993 RMK AO2 SLP135 T02330094
cycle: 23

Station Type Date Time Source
KDLS TAF 2020/09/22 18:36 UTC NOAA

TAF KDLS 221733Z 2218/2318 31013G20KT P6SM FEW250
FM230400 30008KT P6SM BKN250

Example: see airport list